EGSS/STN METAR and TAF weather

Enter ICAO airport designator
Station Type Date Time Source
EGSS METAR 2019/08/25 14:20 UTC NOAA

EGSS 251420Z 12005KT 040V200 CAVOK 31/12 Q1018


Station Type Date Time Source
EGSS Decoded METAR 2019/08/25 14:20 UTC NOAA

Station name not available
Aug 25, 2019 - 10:20 AM EDT / 2019.08.25 1420 UTC
Wind: from the ESE (120 degrees) at 6 MPH (5 KT) (direction variable):0
Visibility: greater than 7 mile(s):0
Temperature: 87 F (31 C)
Dew Point: 53 F (12 C)
Relative Humidity: 31%
Pressure (altimeter): 30.06 in. Hg (1018 hPa)
ob: EGSS 251420Z 12005KT 040V200 CAVOK 31/12 Q1018
cycle: 14

Station Type Date Time Source
EGSS TAF 2019/08/25 12:09 UTC NOAA

TAF EGSS 251053Z 2512/2618 VRB05KT CAVOK
BECMG 2600/2603 8000 PROB30 2602/2608 4000 BR
BECMG 2608/2611 CAVOK

Example: see airport list